createdAt,value
2023-01-02T00:03:33.795Z,42.70
2023-01-02T00:06:05.296Z,50.63
2023-01-02T00:08:32.368Z,42.38
2023-01-02T00:10:59.265Z,39.58
2023-01-02T00:13:26.391Z,45.30
2023-01-02T00:15:53.255Z,45.05
2023-01-02T00:18:20.245Z,41.80
2023-01-02T00:20:47.048Z,60.15
2023-01-02T00:23:13.847Z,45.28
2023-01-02T00:25:41.406Z,39.92
2023-01-02T00:28:08.314Z,51.92
2023-01-02T00:30:38.952Z,44.25
2023-01-02T00:33:06.764Z,52.35
2023-01-02T00:35:33.779Z,41.85
2023-01-02T00:38:00.538Z,63.47
2023-01-02T00:40:27.393Z,41.08
2023-01-02T00:42:54.146Z,42.58
2023-01-02T00:45:20.944Z,41.22
2023-01-02T00:47:47.690Z,40.55
2023-01-02T00:50:14.518Z,47.65
2023-01-02T00:52:41.243Z,46.13
2023-01-02T00:55:08.508Z,42.17
2023-01-02T00:57:35.265Z,49.28
2023-01-02T01:00:02.345Z,42.75
2023-01-02T01:02:29.255Z,40.83
2023-01-02T01:04:56.286Z,36.05
2023-01-02T01:07:23.038Z,37.10
2023-01-02T01:09:49.808Z,36.30
2023-01-02T01:12:16.602Z,37.65
2023-01-02T01:14:44.181Z,36.80
2023-01-02T01:17:11.191Z,36.00
2023-01-02T01:19:37.975Z,44.72
2023-01-02T01:22:04.684Z,35.80
2023-01-02T01:24:31.522Z,38.45
2023-01-02T01:26:58.397Z,42.80
2023-01-02T01:29:25.213Z,39.25
2023-01-02T01:31:52.044Z,40.30
2023-01-02T01:34:18.829Z,52.75
2023-01-02T01:36:45.626Z,36.72
2023-01-02T01:39:12.450Z,37.30
2023-01-02T01:41:39.269Z,43.13
2023-01-02T01:44:45.167Z,39.45
2023-01-02T01:47:36.797Z,38.95
2023-01-02T01:50:29.673Z,38.08
2023-01-02T01:53:05.652Z,37.58
2023-01-02T01:55:39.046Z,37.53
2023-01-02T01:58:12.934Z,37.17
2023-01-02T02:00:42.035Z,64.70
2023-01-02T02:03:17.276Z,38.30
2023-01-02T02:05:45.587Z,38.83
2023-01-02T02:08:32.168Z,33.38
2023-01-02T02:11:00.415Z,36.30
2023-01-02T02:13:27.367Z,37.88
2023-01-02T02:16:15.462Z,41.05
2023-01-02T02:18:56.738Z,38.08
2023-01-02T02:21:48.159Z,40.78
2023-01-02T02:24:33.384Z,42.97
2023-01-02T02:27:04.669Z,42.75
2023-01-02T02:30:03.444Z,40.70
2023-01-02T02:33:04.494Z,39.30
2023-01-02T02:35:49.885Z,39.65
2023-01-02T02:38:36.365Z,48.08
2023-01-02T02:41:18.072Z,42.35
2023-01-02T02:44:00.770Z,41.15
2023-01-02T02:46:45.969Z,37.25
2023-01-02T02:50:09.820Z,51.67
2023-01-02T02:52:49.034Z,50.00
2023-01-02T02:55:22.245Z,44.20
2023-01-02T02:57:51.918Z,50.83
2023-01-02T03:00:22.570Z,39.58
2023-01-02T03:02:49.416Z,40.35
2023-01-02T03:05:30.398Z,39.65
2023-01-02T03:08:16.095Z,38.67
2023-01-02T03:11:00.162Z,41.15
2023-01-02T03:13:26.859Z,39.60
2023-01-02T03:16:16.396Z,57.08
2023-01-02T03:18:49.938Z,42.40
2023-01-02T03:21:31.769Z,39.08
2023-01-02T03:24:03.821Z,36.45
2023-01-02T03:26:33.636Z,36.10
2023-01-02T03:29:08.639Z,34.45
2023-01-02T03:31:40.301Z,41.17
2023-01-02T03:34:21.624Z,40.10
2023-01-02T03:36:53.885Z,44.20
2023-01-02T03:39:27.068Z,38.45
2023-01-02T03:41:57.150Z,41.30
2023-01-02T03:44:28.506Z,39.03
2023-01-02T03:47:32.620Z,35.22
2023-01-02T03:50:03.952Z,36.58
2023-01-02T03:52:30.913Z,36.45
2023-01-02T03:55:00.671Z,37.22
2023-01-02T03:57:57.544Z,36.83
2023-01-02T04:00:41.621Z,35.70
2023-01-02T04:03:22.058Z,35.05
2023-01-02T04:06:00.376Z,37.20
2023-01-02T04:08:38.007Z,40.60
2023-01-02T04:11:06.780Z,43.95
2023-01-02T04:13:39.874Z,41.63
2023-01-02T04:16:11.273Z,36.75
2023-01-02T04:18:47.102Z,37.97
2023-01-02T04:21:17.948Z,40.15
2023-01-02T04:24:24.391Z,39.70
2023-01-02T04:27:04.062Z,43.72
2023-01-02T04:29:31.451Z,41.80
2023-01-02T04:32:27.585Z,40.30
2023-01-02T04:34:55.777Z,43.53
2023-01-02T04:37:35.473Z,34.95
2023-01-02T04:40:21.118Z,37.80
2023-01-02T04:42:47.916Z,40.33
2023-01-02T04:45:14.793Z,40.10
2023-01-02T04:47:41.759Z,39.15
2023-01-02T04:50:09.809Z,41.72
2023-01-02T04:52:37.302Z,39.75
2023-01-02T04:55:06.070Z,42.20
2023-01-02T04:57:32.774Z,40.42
2023-01-02T04:59:59.512Z,43.47
2023-01-02T05:02:27.981Z,44.92
2023-01-02T05:04:54.807Z,40.13
2023-01-02T05:07:21.531Z,40.10
2023-01-02T05:09:48.272Z,40.85
2023-01-02T05:12:15.010Z,39.08
2023-01-02T05:14:41.790Z,37.72
2023-01-02T05:17:08.535Z,45.75
2023-01-02T05:19:35.638Z,40.35
2023-01-02T05:22:21.083Z,43.45
2023-01-02T05:24:47.774Z,40.65
2023-01-02T05:27:14.496Z,42.05
2023-01-02T05:29:41.332Z,38.80
2023-01-02T05:32:08.096Z,39.97
2023-01-02T05:34:34.830Z,38.80
2023-01-02T05:37:01.575Z,40.20
2023-01-02T05:39:28.249Z,44.90
2023-01-02T05:41:55.131Z,37.17
2023-01-02T05:44:21.903Z,37.65
2023-01-02T05:46:48.685Z,38.58
2023-01-02T05:49:15.519Z,35.00
2023-01-02T05:51:42.252Z,38.03
2023-01-02T05:54:09.220Z,35.60
2023-01-02T05:56:36.078Z,37.65
2023-01-02T05:59:08.057Z,36.08
2023-01-02T06:01:35.317Z,40.15
2023-01-02T06:04:02.548Z,34.92
2023-01-02T06:06:47.751Z,33.13
2023-01-02T06:09:15.964Z,30.17
2023-01-02T06:11:43.228Z,30.55
2023-01-02T06:14:12.809Z,37.60
2023-01-02T06:16:40.252Z,36.20
2023-01-02T06:19:07.596Z,35.58
2023-01-02T06:21:34.734Z,36.03
2023-01-02T06:24:01.561Z,33.13
2023-01-02T06:26:34.653Z,34.50
2023-01-02T06:29:02.471Z,29.13
2023-01-02T06:31:29.906Z,36.30
2023-01-02T06:34:01.520Z,43.88
2023-01-02T06:36:34.687Z,45.15
2023-01-02T06:39:02.063Z,45.15
2023-01-02T06:41:28.932Z,38.33
2023-01-02T06:43:55.829Z,45.20
2023-01-02T06:46:23.871Z,45.50
2023-01-02T06:48:51.099Z,46.80
2023-01-02T06:51:20.679Z,43.65
2023-01-02T06:53:47.702Z,41.28
2023-01-02T06:56:17.063Z,40.47
2023-01-02T06:58:44.204Z,39.95
2023-01-02T07:01:14.412Z,43.92
2023-01-02T07:03:41.859Z,48.58
2023-01-02T07:06:14.783Z,49.03
2023-01-02T07:08:43.466Z,45.22
2023-01-02T07:11:22.585Z,45.97
2023-01-02T07:13:52.902Z,39.85
2023-01-02T07:16:21.401Z,44.53
2023-01-02T07:18:48.755Z,37.10
2023-01-02T07:21:18.231Z,38.65
2023-01-02T07:23:45.128Z,40.25
2023-01-02T07:26:12.641Z,54.50
2023-01-02T07:28:39.618Z,54.25
2023-01-02T07:31:09.319Z,46.40
2023-01-02T07:33:36.245Z,34.05
2023-01-02T07:36:15.394Z,42.50
2023-01-02T07:38:42.139Z,51.22
2023-01-02T07:41:16.864Z,60.03
2023-01-02T07:43:45.067Z,65.75
2023-01-02T07:46:13.205Z,53.53
2023-01-02T07:48:40.073Z,48.88
2023-01-02T07:51:08.120Z,46.33
2023-01-02T07:53:35.671Z,47.42
2023-01-02T07:56:03.481Z,41.72
2023-01-02T07:58:31.098Z,44.45
2023-01-02T08:01:05.117Z,58.40
2023-01-02T08:03:32.907Z,57.83
2023-01-02T08:06:04.987Z,51.70
2023-01-02T08:08:31.851Z,45.83
2023-01-02T08:10:58.646Z,59.20
2023-01-02T08:13:25.361Z,45.83
2023-01-02T08:15:52.177Z,49.28
2023-01-02T08:18:18.878Z,54.25
2023-01-02T08:20:45.649Z,58.65
2023-01-02T08:23:12.555Z,48.75
2023-01-02T08:25:39.316Z,58.33
2023-01-02T08:28:06.128Z,59.25
2023-01-02T08:30:32.913Z,47.78
2023-01-02T08:33:01.149Z,47.65
2023-01-02T08:35:37.901Z,54.17
2023-01-02T08:38:05.501Z,59.60
2023-01-02T08:40:32.269Z,54.30
2023-01-02T08:42:59.055Z,47.20
2023-01-02T08:45:25.828Z,45.58
2023-01-02T08:47:52.808Z,46.47
2023-01-02T08:50:19.813Z,46.50
2023-01-02T08:52:46.531Z,47.55
2023-01-02T08:55:13.571Z,46.72
2023-01-02T08:57:40.477Z,45.42
2023-01-02T09:00:07.866Z,43.22
2023-01-02T09:02:35.770Z,42.50
2023-01-02T09:05:02.682Z,40.47
2023-01-02T09:07:32.531Z,48.53
2023-01-02T09:09:59.856Z,36.25
2023-01-02T09:12:26.865Z,39.58
2023-01-02T09:14:53.594Z,33.63
2023-01-02T09:17:20.362Z,39.28
2023-01-02T09:19:47.268Z,38.70
2023-01-02T09:22:14.070Z,37.30
2023-01-02T09:24:41.815Z,33.72
2023-01-02T09:27:08.661Z,36.83
2023-01-02T09:29:35.412Z,32.58
2023-01-02T09:32:02.148Z,36.08
2023-01-02T09:34:28.985Z,29.30
2023-01-02T09:36:55.738Z,30.83
2023-01-02T09:39:26.948Z,27.80
2023-01-02T09:42:00.410Z,24.25
2023-01-02T09:44:33.568Z,20.65
2023-01-02T09:47:12.408Z,22.85
2023-01-02T09:49:49.953Z,21.35
2023-01-02T09:52:19.886Z,23.20
2023-01-02T09:54:46.769Z,21.77
2023-01-02T09:57:28.980Z,22.15
2023-01-02T10:00:01.765Z,22.30
2023-01-02T10:03:08.543Z,22.63
2023-01-02T10:05:47.508Z,21.58
2023-01-02T10:08:42.522Z,23.08
2023-01-02T10:11:28.061Z,22.70
2023-01-02T10:16:55.104Z,24.20
2023-01-02T10:19:39.994Z,25.02
2023-01-02T10:22:10.076Z,27.17
2023-01-02T10:24:40.388Z,26.70
2023-01-02T10:27:13.531Z,26.60
2023-01-02T10:29:45.762Z,25.63
2023-01-02T10:32:20.741Z,26.90
2023-01-02T10:35:03.514Z,29.20
2023-01-02T10:37:30.339Z,25.65
2023-01-02T10:39:58.039Z,27.23
2023-01-02T10:42:25.598Z,26.42
2023-01-02T10:44:52.645Z,25.00
2023-01-02T10:47:19.901Z,26.80
2023-01-02T10:49:50.138Z,26.10
2023-01-02T10:52:43.675Z,26.50
2023-01-02T10:55:10.395Z,25.27
2023-01-02T10:57:51.583Z,25.27
2023-01-02T11:00:22.591Z,25.20
2023-01-02T11:02:57.750Z,23.17
2023-01-02T11:05:27.817Z,23.65
2023-01-02T11:07:55.410Z,21.35
2023-01-02T11:10:40.441Z,21.42
2023-01-02T11:13:16.009Z,20.25
2023-01-02T11:15:57.039Z,20.58
2023-01-02T11:18:30.977Z,18.52
2023-01-02T11:21:04.457Z,21.02
2023-01-02T11:23:57.141Z,20.35
2023-01-02T11:26:26.346Z,20.33
2023-01-02T11:28:55.797Z,22.00
2023-01-02T11:31:23.727Z,18.17
2023-01-02T11:33:50.523Z,19.55
2023-01-02T11:36:20.037Z,19.27
2023-01-02T11:38:51.903Z,19.58
2023-01-02T11:42:22.560Z,18.73
2023-01-02T11:45:11.748Z,16.67
2023-01-02T11:47:51.257Z,19.40
2023-01-02T11:50:34.096Z,21.08
2023-01-02T11:53:25.217Z,19.05
2023-01-02T11:56:33.606Z,17.92
2023-01-02T11:59:12.057Z,18.45
2023-01-02T12:01:50.443Z,16.73
2023-01-02T12:04:17.566Z,18.52
2023-01-02T12:07:04.836Z,18.50
2023-01-02T12:09:51.978Z,20.73
2023-01-02T12:12:30.966Z,18.90
2023-01-02T12:15:18.698Z,18.95
2023-01-02T12:18:26.617Z,19.17
2023-01-02T12:21:19.452Z,18.45
2023-01-02T12:24:07.409Z,18.67
2023-01-02T12:26:55.106Z,18.30
2023-01-02T12:29:47.177Z,20.27
2023-01-02T12:32:42.296Z,20.40
2023-01-02T12:35:37.285Z,18.30
2023-01-02T12:38:07.864Z,20.10
2023-01-02T12:41:02.248Z,19.50
2023-01-02T12:43:50.113Z,20.67
2023-01-02T12:46:32.179Z,19.25
2023-01-02T12:49:14.243Z,22.90
2023-01-02T12:52:03.614Z,19.27
2023-01-02T12:54:46.503Z,22.20
2023-01-02T12:57:34.590Z,25.10
2023-01-02T13:00:39.495Z,23.92
2023-01-02T13:03:06.297Z,24.23
2023-01-02T13:05:44.390Z,23.85
2023-01-02T13:08:20.125Z,22.35
2023-01-02T13:10:47.561Z,30.17
2023-01-02T13:13:15.569Z,28.13
2023-01-02T13:15:47.745Z,26.83
2023-01-02T13:18:21.879Z,22.77
2023-01-02T13:20:58.613Z,22.30
2023-01-02T13:23:34.823Z,23.92
2023-01-02T13:26:11.195Z,26.30
2023-01-02T13:28:42.508Z,21.90
2023-01-02T13:31:45.415Z,20.77
2023-01-02T13:36:46.221Z,27.17
2023-01-02T13:39:23.982Z,22.65
2023-01-02T13:42:15.109Z,22.58
2023-01-02T13:44:46.376Z,23.33
2023-01-02T13:47:24.463Z,26.38
2023-01-02T13:50:17.419Z,24.50
2023-01-02T13:53:02.567Z,28.38
2023-01-02T13:55:35.077Z,23.15
2023-01-02T13:58:18.459Z,30.08
2023-01-02T14:00:54.327Z,24.70
2023-01-02T14:03:24.128Z,24.40
2023-01-02T14:06:00.263Z,28.23
2023-01-02T14:08:34.751Z,24.48
2023-01-02T14:11:55.536Z,24.27
2023-01-02T14:14:27.572Z,16.23
2023-01-02T14:17:12.077Z,21.88
2023-01-02T14:19:39.676Z,21.45
2023-01-02T14:22:14.096Z,23.73
2023-01-02T14:24:46.493Z,18.83
2023-01-02T14:27:16.273Z,17.60
2023-01-02T14:29:52.495Z,17.60
2023-01-02T14:32:44.288Z,18.92
2023-01-02T14:35:11.061Z,21.42
2023-01-02T14:37:43.520Z,19.55
2023-01-02T14:40:38.193Z,18.27
2023-01-02T14:43:31.484Z,16.75
2023-01-02T14:46:04.674Z,15.52
2023-01-02T14:48:58.577Z,16.63
2023-01-02T14:51:37.051Z,14.70
2023-01-02T14:54:17.166Z,15.80
2023-01-02T14:59:41.205Z,13.13
2023-01-02T15:02:18.097Z,17.25
2023-01-02T15:04:55.722Z,14.02
2023-01-02T15:07:36.962Z,14.48
2023-01-02T15:10:20.169Z,15.38
2023-01-02T15:13:06.730Z,15.10
2023-01-02T15:15:40.710Z,14.93
2023-01-02T15:18:28.744Z,16.88
2023-01-02T15:21:02.811Z,14.07
2023-01-02T15:23:30.113Z,15.70
2023-01-02T15:26:32.378Z,15.70
2023-01-02T15:28:43.948Z,14.68
2023-01-02T15:31:16.041Z,15.15
2023-01-02T15:33:43.067Z,15.82
2023-01-02T15:36:33.020Z,14.77
2023-01-02T15:39:26.806Z,15.15
2023-01-02T15:41:57.481Z,15.98
2023-01-02T15:44:46.231Z,15.75
2023-01-02T15:47:14.792Z,17.73
2023-01-02T15:49:44.057Z,19.48
2023-01-02T15:52:30.637Z,21.95
2023-01-02T15:54:58.674Z,18.17
2023-01-02T15:57:28.609Z,20.38
2023-01-02T15:59:56.224Z,19.88
2023-01-02T16:02:44.626Z,20.67
2023-01-02T16:05:20.803Z,18.25
2023-01-02T16:07:55.817Z,22.30
2023-01-02T16:10:26.207Z,24.98
2023-01-02T16:13:34.589Z,33.05
2023-01-02T16:16:16.158Z,32.75
2023-01-02T16:18:49.432Z,32.25
2023-01-02T16:21:17.334Z,28.42
2023-01-02T16:23:52.064Z,28.75
2023-01-02T16:26:23.908Z,30.13
2023-01-02T16:28:51.450Z,27.52
2023-01-02T16:31:22.047Z,29.27
2023-01-02T16:33:49.162Z,30.48
2023-01-02T16:36:15.963Z,28.38
2023-01-02T16:38:53.151Z,27.60
2023-01-02T16:41:37.319Z,24.92
2023-01-02T16:44:12.448Z,24.92
2023-01-02T16:46:40.735Z,25.70
2023-01-02T16:49:11.629Z,25.77
2023-01-02T16:51:42.866Z,24.55
2023-01-02T16:54:13.975Z,23.75
2023-01-02T16:56:41.518Z,24.63
2023-01-02T16:59:08.374Z,20.90
2023-01-02T17:01:35.978Z,23.45
2023-01-02T17:04:02.912Z,25.75
2023-01-02T17:06:29.844Z,24.90
2023-01-02T17:08:56.568Z,25.45
2023-01-02T17:11:24.825Z,24.25
2023-01-02T17:13:52.837Z,27.77
2023-01-02T17:16:20.224Z,28.58
2023-01-02T17:18:47.370Z,25.58
2023-01-02T17:21:14.671Z,26.50
2023-01-02T17:23:41.671Z,24.70
2023-01-02T17:26:08.537Z,24.17
2023-01-02T17:28:35.414Z,23.60
2023-01-02T17:31:02.327Z,22.75
2023-01-02T17:33:29.156Z,23.88
2023-01-02T17:35:56.905Z,22.33
2023-01-02T17:38:23.718Z,20.88
2023-01-02T17:40:56.783Z,20.70
2023-01-02T17:43:23.627Z,21.00
2023-01-02T17:45:50.688Z,19.33
2023-01-02T17:48:23.901Z,20.35
2023-01-02T17:50:52.919Z,21.27
2023-01-02T17:53:21.157Z,19.67
2023-01-02T17:56:20.665Z,22.05
2023-01-02T17:58:39.981Z,19.35
2023-01-02T18:01:06.993Z,18.80
2023-01-02T18:03:33.931Z,20.83
2023-01-02T18:06:05.370Z,19.52
2023-01-02T18:08:32.703Z,19.98
2023-01-02T18:10:59.704Z,22.15
2023-01-02T18:13:28.544Z,22.67
2023-01-02T18:15:55.497Z,20.10
2023-01-02T18:18:25.065Z,19.77
2023-01-02T18:20:52.932Z,21.65
2023-01-02T18:23:19.817Z,21.77
2023-01-02T18:25:46.885Z,19.33
2023-01-02T18:28:24.710Z,20.00
2023-01-02T18:30:58.829Z,21.30
2023-01-02T18:33:28.159Z,22.55
2023-01-02T18:36:06.261Z,19.33
2023-01-02T18:38:37.916Z,22.20
2023-01-02T18:41:17.930Z,19.98
2023-01-02T18:43:46.254Z,22.92
2023-01-02T18:46:19.390Z,21.98
2023-01-02T18:48:46.871Z,22.38
2023-01-02T18:51:20.415Z,23.02
2023-01-02T18:53:52.755Z,24.23
2023-01-02T18:56:27.661Z,20.95
2023-01-02T18:59:06.951Z,24.13
2023-01-02T19:01:41.140Z,23.53
2023-01-02T19:04:20.529Z,21.45
2023-01-02T19:06:53.968Z,21.10
2023-01-02T19:09:25.695Z,33.45
2023-01-02T19:12:39.487Z,22.85
2023-01-02T19:15:43.924Z,21.35
2023-01-02T19:18:13.971Z,20.02
2023-01-02T19:20:45.100Z,27.23
2023-01-02T19:23:48.018Z,22.50
2023-01-02T19:26:33.200Z,21.33
2023-01-02T19:29:09.609Z,20.92
2023-01-02T19:32:00.353Z,30.75
2023-01-02T19:34:40.556Z,30.42
2023-01-02T19:40:06.610Z,23.30
2023-01-02T19:42:35.532Z,19.23
2023-01-02T19:45:04.672Z,22.23
2023-01-02T19:47:35.113Z,38.05
2023-01-02T19:50:02.973Z,25.25
2023-01-02T19:52:30.383Z,35.17
2023-01-02T19:54:59.578Z,21.95
2023-01-02T19:57:27.562Z,25.37
2023-01-02T19:59:56.371Z,25.00
2023-01-02T20:02:25.895Z,20.55
2023-01-02T20:04:55.864Z,29.50
2023-01-02T20:07:25.201Z,23.45
2023-01-02T20:09:53.448Z,21.67
2023-01-02T20:12:30.430Z,19.77
2023-01-02T20:14:59.455Z,21.90
2023-01-02T20:17:29.037Z,21.00
2023-01-02T20:19:57.425Z,22.08
2023-01-02T20:22:24.689Z,18.17
2023-01-02T20:24:53.296Z,20.10
2023-01-02T20:27:21.128Z,22.67
2023-01-02T20:29:50.091Z,23.52
2023-01-02T20:32:18.415Z,27.05
2023-01-02T20:34:47.177Z,32.95
2023-01-02T20:37:15.962Z,24.83
2023-01-02T20:39:46.526Z,25.63
2023-01-02T20:42:13.977Z,25.60
2023-01-02T20:44:41.378Z,19.50
2023-01-02T20:47:09.064Z,35.58
2023-01-02T20:49:37.030Z,37.63
2023-01-02T20:52:04.900Z,45.60
2023-01-02T20:54:33.948Z,33.58
2023-01-02T20:57:03.065Z,46.17
2023-01-02T20:59:30.962Z,75.40
2023-01-02T21:01:58.641Z,52.20
2023-01-02T21:04:34.169Z,146.48
2023-01-02T21:07:05.934Z,30.27
2023-01-02T21:09:33.657Z,43.55
2023-01-02T21:12:01.143Z,39.83
2023-01-02T21:14:32.452Z,34.53
2023-01-02T21:17:04.286Z,33.08
2023-01-02T21:19:31.530Z,25.33
2023-01-02T21:21:59.055Z,25.08
2023-01-02T21:24:26.374Z,26.05
2023-01-02T21:26:53.887Z,25.88
2023-01-02T21:29:20.939Z,24.75
2023-01-02T21:31:48.440Z,26.98
2023-01-02T21:34:15.450Z,26.48
2023-01-02T21:36:42.376Z,25.00
2023-01-02T21:39:10.082Z,33.63
2023-01-02T21:41:55.965Z,70.88
2023-01-02T21:44:22.686Z,163.00
2023-01-02T21:46:49.477Z,42.05
2023-01-02T21:49:16.287Z,46.20
2023-01-02T21:51:42.992Z,38.40
2023-01-02T21:54:09.774Z,28.70
2023-01-02T21:56:36.493Z,22.67
2023-01-02T21:59:03.276Z,41.83
2023-01-02T22:01:30.189Z,85.30
2023-01-02T22:03:57.521Z,35.92
2023-01-02T22:06:24.417Z,29.38
2023-01-02T22:08:51.285Z,33.72
2023-01-02T22:11:36.920Z,33.08
2023-01-02T22:14:03.675Z,33.38
2023-01-02T22:16:31.232Z,33.20
2023-01-02T22:18:58.072Z,44.95
2023-01-02T22:21:24.867Z,32.05
2023-01-02T22:23:51.665Z,32.40
2023-01-02T22:26:18.579Z,28.45
2023-01-02T22:28:45.348Z,31.95
2023-01-02T22:31:12.169Z,31.73
2023-01-02T22:33:39.243Z,30.45
2023-01-02T22:36:06.603Z,31.70
2023-01-02T22:38:34.030Z,34.25
2023-01-02T22:41:02.456Z,24.48
2023-01-02T22:43:34.668Z,34.13
2023-01-02T22:46:06.559Z,25.35
2023-01-02T22:48:38.243Z,25.95
2023-01-02T22:51:09.132Z,33.70
2023-01-02T22:53:37.605Z,21.90
2023-01-02T22:56:19.323Z,21.65
2023-01-02T22:58:47.599Z,21.45
2023-01-02T23:01:33.485Z,22.02
2023-01-02T23:04:00.747Z,20.92
2023-01-02T23:06:27.916Z,22.30
2023-01-02T23:08:55.019Z,19.75
2023-01-02T23:11:22.987Z,20.60
2023-01-02T23:13:56.074Z,20.23
2023-01-02T23:16:42.224Z,17.95
2023-01-02T23:19:14.969Z,18.13
2023-01-02T23:21:44.566Z,19.23
2023-01-02T23:24:13.189Z,20.73
2023-01-02T23:26:43.260Z,57.13
2023-01-02T23:29:11.081Z,57.65
2023-01-02T23:31:40.395Z,28.23
2023-01-02T23:34:08.822Z,31.30
2023-01-02T23:36:37.164Z,23.33
2023-01-02T23:39:06.221Z,19.63
2023-01-02T23:41:33.546Z,54.72
2023-01-02T23:44:00.368Z,28.85
2023-01-02T23:46:27.313Z,28.27
2023-01-02T23:48:54.083Z,22.40
2023-01-02T23:51:20.890Z,27.67
2023-01-02T23:53:48.189Z,24.75
2023-01-02T23:56:24.193Z,22.38
2023-01-02T23:58:53.556Z,28.95
